Time;durP1;ratioP1;P1;durP2;ratioP2;P2;SDS_P1;SDS_P2;PMS_P1;PMS_P2;Temp;Humidity;BMP_temperature;BMP_pressure;BME280_temperature;BME280_humidity;BME280_pressure;Samples;Min_cycle;Max_cycle;Signal;HPM_P1;HPM_P2
2021/07/10 00:01:36;;;;;;;20.73;18.60;;;16.70;99.90;;;;;;5116002;28;20636;-69
2021/07/10 00:04:05;;;;;;;21.63;19.50;;;16.60;99.90;;;;;;5116551;28;20589;-69
2021/07/10 00:06:32;;;;;;;20.90;17.67;;;16.60;99.90;;;;;;5116409;28;20607;-69
2021/07/10 00:08:58;;;;;;;20.43;18.40;;;16.50;99.90;;;;;;5116558;28;21010;-69
2021/07/10 00:11:24;;;;;;;20.03;18.03;;;16.50;99.90;;;;;;5098017;28;20612;-69
2021/07/10 00:13:51;;;;;;;22.77;20.47;;;16.40;99.90;;;;;;5098159;28;20603;-70
2021/07/10 00:16:17;;;;;;;21.23;19.33;;;16.40;99.90;;;;;;5115734;28;20624;-69
2021/07/10 00:18:43;;;;;;;21.97;19.77;;;16.30;99.90;;;;;;5116432;28;20686;-69
2021/07/10 00:21:10;;;;;;;19.30;17.70;;;16.20;99.90;;;;;;5116276;28;20665;-69
2021/07/10 00:23:37;;;;;;;17.40;15.60;;;16.10;99.90;;;;;;5116043;28;21081;-69
2021/07/10 00:26:03;;;;;;;17.17;15.67;;;16.00;99.90;;;;;;5115614;28;20640;-69
2021/07/10 00:28:30;;;;;;;16.50;14.87;;;15.90;99.90;;;;;;5115802;28;20631;-69
2021/07/10 00:30:56;;;;;;;16.27;14.87;;;15.80;99.90;;;;;;5081333;28;20636;-69
2021/07/10 00:33:22;;;;;;;17.43;15.63;;;15.80;99.90;;;;;;5115853;28;20642;-69
2021/07/10 00:35:49;;;;;;;16.33;14.70;;;15.70;99.90;;;;;;5116685;28;20604;-69
2021/07/10 00:38:15;;;;;;;16.77;15.20;;;15.60;99.90;;;;;;5116032;28;20616;-69
2021/07/10 00:40:41;;;;;;;16.27;14.53;;;15.60;99.90;;;;;;5097251;28;20645;-69
2021/07/10 00:43:08;;;;;;;15.63;14.03;;;15.60;99.90;;;;;;5114973;28;20660;-69
2021/07/10 00:45:34;;;;;;;15.83;14.13;;;15.60;99.90;;;;;;5115281;28;20602;-69
2021/07/10 00:48:01;;;;;;;18.37;16.10;;;15.60;99.90;;;;;;5115684;28;20691;-70
2021/07/10 00:50:27;;;;;;;17.23;15.53;;;15.50;99.90;;;;;;5115487;28;20603;-69
2021/07/10 00:52:53;;;;;;;20.53;16.10;;;15.50;99.90;;;;;;5096996;28;20628;-69
2021/07/10 00:55:22;;;;;;;18.60;16.50;;;15.50;99.90;;;;;;5115467;28;20595;-69
2021/07/10 00:57:49;;;;;;;19.70;16.63;;;15.50;99.90;;;;;;5115476;28;20642;-69
2021/07/10 01:00:21;;;;;;;17.90;16.07;;;15.50;99.90;;;;;;5116124;28;21173;-70
2021/07/10 01:02:50;;;;;;;18.40;16.70;;;15.50;99.90;;;;;;5115235;28;20654;-68
2021/07/10 01:05:19;;;;;;;18.10;16.37;;;15.50;99.90;;;;;;5115288;28;20596;-69
2021/07/10 01:07:45;;;;;;;17.10;15.40;;;15.50;99.90;;;;;;5114858;28;20627;-67
2021/07/10 01:10:12;;;;;;;16.40;15.00;;;15.40;99.90;;;;;;5114883;28;20673;-67
2021/07/10 01:12:41;;;;;;;16.80;15.40;;;15.40;99.90;;;;;;5114678;28;21148;-68
2021/07/10 01:15:09;;;;;;;16.40;14.70;;;15.40;99.90;;;;;;5115099;28;20607;-67
2021/07/10 01:17:36;;;;;;;16.40;15.00;;;15.40;99.90;;;;;;5115119;28;20950;-68
2021/07/10 01:20:08;;;;;;;17.00;15.60;;;15.40;99.90;;;;;;5114551;28;20624;-68
2021/07/10 01:22:34;;;;;;;16.80;15.30;;;15.40;99.90;;;;;;5114570;28;20660;-68
2021/07/10 01:25:02;;;;;;;15.07;13.73;;;15.40;99.90;;;;;;5114422;28;20616;-69
2021/07/10 01:27:28;;;;;;;16.73;15.40;;;15.40;99.90;;;;;;5114345;28;20609;-69
2021/07/10 01:29:56;;;;;;;16.63;15.00;;;15.30;99.90;;;;;;5114099;28;21166;-69
2021/07/10 01:32:22;;;;;;;17.70;15.57;;;15.30;99.90;;;;;;5114056;28;20654;-69
2021/07/10 01:34:49;;;;;;;17.23;15.73;;;15.30;99.90;;;;;;5114822;28;20595;-69
2021/07/10 01:37:16;;;;;;;15.07;13.77;;;15.30;99.90;;;;;;5079599;28;20631;-69
2021/07/10 01:39:43;;;;;;;15.37;13.90;;;15.20;99.90;;;;;;5114429;28;20663;-69
2021/07/10 01:42:11;;;;;;;16.00;14.60;;;15.20;99.90;;;;;;5114143;28;20613;-68
2021/07/10 01:44:38;;;;;;;14.77;13.37;;;15.20;99.90;;;;;;5114481;28;21181;-68
2021/07/10 01:47:05;;;;;;;15.97;14.30;;;15.10;99.90;;;;;;5095946;28;20760;-68
2021/07/10 01:49:33;;;;;;;15.53;14.03;;;15.10;99.90;;;;;;5114696;28;21157;-68
2021/07/10 01:52:00;;;;;;;14.77;13.47;;;15.10;99.90;;;;;;5113935;28;20654;-68
2021/07/10 01:54:26;;;;;;;15.43;14.13;;;15.10;99.90;;;;;;5114348;28;20592;-68
2021/07/10 01:56:52;;;;;;;14.63;13.37;;;15.10;99.90;;;;;;5114336;28;20584;-68
2021/07/10 01:59:19;;;;;;;17.17;15.47;;;15.00;99.90;;;;;;5114394;28;21146;-68
2021/07/10 02:01:47;;;;;;;16.27;14.87;;;14.90;99.90;;;;;;5114463;28;21220;-68
2021/07/10 02:04:15;;;;;;;16.97;15.27;;;14.90;99.90;;;;;;5095623;28;20656;-68
2021/07/10 02:06:43;;;;;;;24.63;14.40;;;14.90;99.90;;;;;;5113440;28;20677;-69
2021/07/10 02:09:09;;;;;;;15.67;14.27;;;14.90;99.90;;;;;;5114260;28;21122;-68
2021/07/10 02:11:37;;;;;;;15.97;14.47;;;14.80;99.90;;;;;;5114211;28;20608;-69
2021/07/10 02:14:04;;;;;;;14.93;13.33;;;14.80;99.90;;;;;;5095691;28;20969;-69
2021/07/10 02:16:31;;;;;;;15.70;14.03;;;14.90;99.90;;;;;;5114100;28;20604;-69
2021/07/10 02:18:58;;;;;;;16.03;14.43;;;14.90;99.90;;;;;;5095754;28;20612;-69
2021/07/10 02:21:24;;;;;;;15.57;13.93;;;14.80;99.90;;;;;;5114231;28;20597;-69
2021/07/10 02:23:51;;;;;;;14.90;13.50;;;14.80;99.90;;;;;;5113892;28;20630;-69
2021/07/10 02:26:18;;;;;;;15.13;13.70;;;14.80;99.90;;;;;;5114026;28;20653;-69
2021/07/10 02:28:45;;;;;;;17.00;13.23;;;14.80;99.90;;;;;;5114188;28;20608;-69
2021/07/10 02:31:12;;;;;;;15.10;13.37;;;14.80;99.90;;;;;;5113799;28;20599;-69
2021/07/10 02:33:39;;;;;;;15.67;13.80;;;14.80;99.90;;;;;;5095236;28;21185;-69
2021/07/10 02:36:05;;;;;;;15.13;13.70;;;14.70;99.90;;;;;;5095823;28;20635;-69
2021/07/10 02:38:31;;;;;;;17.03;14.73;;;14.60;99.90;;;;;;5113976;28;20671;-69
2021/07/10 02:40:58;;;;;;;15.27;13.40;;;14.60;99.90;;;;;;5095234;28;20676;-68
2021/07/10 02:43:24;;;;;;;17.80;14.30;;;14.70;99.90;;;;;;5113970;28;20652;-69
2021/07/10 02:45:50;;;;;;;17.97;16.07;;;14.70;99.90;;;;;;5113852;28;20596;-68
2021/07/10 02:48:17;;;;;;;24.90;15.27;;;14.60;99.90;;;;;;5095789;28;21046;-69
2021/07/10 02:50:43;;;;;;;15.70;14.17;;;14.60;99.90;;;;;;5113663;28;20658;-69
2021/07/10 02:53:09;;;;;;;18.07;14.33;;;14.60;99.90;;;;;;5113660;28;20581;-69
2021/07/10 02:55:36;;;;;;;13.20;12.00;;;14.50;99.90;;;;;;5095611;28;20601;-69
2021/07/10 02:58:03;;;;;;;13.67;11.23;;;14.50;99.90;;;;;;5113516;28;20951;-69
2021/07/10 03:00:31;;;;;;;12.90;11.80;;;14.50;99.90;;;;;;5113515;28;21149;-68
2021/07/10 03:02:58;;;;;;;13.80;11.70;;;14.60;99.90;;;;;;5112989;28;21255;-69
2021/07/10 03:05:25;;;;;;;14.63;12.90;;;14.70;99.90;;;;;;5112907;28;20620;-69
2021/07/10 03:07:52;;;;;;;31.43;14.60;;;14.70;99.90;;;;;;5115429;28;20608;-69
2021/07/10 03:10:22;;;;;;;20.03;14.67;;;14.70;99.90;;;;;;5116936;28;20620;-69
2021/07/10 03:12:49;;;;;;;12.93;11.60;;;14.80;99.90;;;;;;5116381;28;20624;-69
2021/07/10 03:15:16;;;;;;;15.60;13.23;;;14.90;99.90;;;;;;5116644;28;21154;-69
2021/07/10 03:17:44;;;;;;;21.17;15.13;;;14.90;99.90;;;;;;5116879;28;20616;-69
2021/07/10 03:20:12;;;;;;;37.27;16.80;;;14.90;99.90;;;;;;5117235;28;20648;-69
2021/07/10 03:22:39;;;;;;;40.70;16.87;;;14.90;99.90;;;;;;5117453;28;21213;-69
2021/07/10 03:25:07;;;;;;;89.80;17.90;;;14.90;99.90;;;;;;5117260;28;21151;-69
2021/07/10 03:27:34;;;;;;;100.47;17.13;;;14.80;99.90;;;;;;5117719;28;20650;-69
2021/07/10 03:30:03;;;;;;;134.53;20.50;;;14.90;99.90;;;;;;5117493;28;20642;-69
2021/07/10 03:32:30;;;;;;;87.53;16.77;;;14.80;99.90;;;;;;5116805;28;20634;-69
2021/07/10 03:34:56;;;;;;;98.77;18.20;;;14.80;99.90;;;;;;5117049;28;20613;-69
2021/07/10 03:37:31;;;;;;;125.87;18.27;;;14.80;99.90;;;;;;5099190;28;20611;-69
2021/07/10 03:40:15;;;;;;;124.00;19.43;;;14.70;99.90;;;;;;5115299;28;20649;-68
2021/07/10 03:42:43;;;;;;;102.70;17.50;;;14.70;99.90;;;;;;5117197;28;20601;-68
2021/07/10 03:45:11;;;;;;;166.30;20.10;;;14.70;99.90;;;;;;5116928;28;20603;-68
2021/07/10 03:47:38;;;;;;;74.43;17.00;;;14.70;99.90;;;;;;5116654;28;20598;-68
2021/07/10 03:50:07;;;;;;;110.50;19.50;;;14.80;99.90;;;;;;5117275;28;20972;-68
2021/07/10 03:52:34;;;;;;;118.60;18.67;;;14.80;99.90;;;;;;5116583;28;21177;-68
2021/07/10 03:55:01;;;;;;;119.97;21.47;;;14.90;99.90;;;;;;5117032;28;21004;-68
2021/07/10 03:57:28;;;;;;;110.17;19.53;;;14.90;99.90;;;;;;5116982;28;21139;-68
2021/07/10 03:59:55;;;;;;;105.60;20.40;;;14.80;99.90;;;;;;5098736;28;21173;-68
2021/07/10 04:02:21;;;;;;;156.93;23.23;;;14.90;99.90;;;;;;5116801;28;20573;-68
2021/07/10 04:04:47;;;;;;;92.20;21.70;;;14.90;99.90;;;;;;5098609;28;20634;-68
2021/07/10 04:07:13;;;;;;;133.93;23.87;;;15.00;99.90;;;;;;5098111;28;21166;-68
2021/07/10 04:09:40;;;;;;;187.00;25.17;;;15.00;99.90;;;;;;5098330;28;20593;-68
2021/07/10 04:12:06;;;;;;;108.43;25.13;;;15.10;99.90;;;;;;5116515;28;20596;-68
2021/07/10 04:14:35;;;;;;;77.37;25.30;;;15.20;99.90;;;;;;5116253;28;20596;-68
2021/07/10 04:17:03;;;;;;;98.83;26.80;;;15.20;99.90;;;;;;5116418;28;20603;-68
2021/07/10 04:19:30;;;;;;;72.33;25.23;;;15.20;99.90;;;;;;5114583;28;20614;-69
2021/07/10 04:21:56;;;;;;;55.77;25.47;;;15.30;99.90;;;;;;5116171;28;20611;-68
2021/07/10 04:24:23;;;;;;;63.13;25.30;;;15.40;99.90;;;;;;5116116;28;20635;-68
2021/07/10 04:26:50;;;;;;;52.63;24.10;;;15.40;99.90;;;;;;5116359;28;20649;-68
2021/07/10 04:29:16;;;;;;;59.43;22.47;;;15.30;99.90;;;;;;5116203;28;20608;-68
2021/07/10 04:31:43;;;;;;;67.03;23.77;;;15.40;99.90;;;;;;5115126;28;20660;-68
2021/07/10 04:34:09;;;;;;;99.00;24.93;;;15.40;99.90;;;;;;5116318;28;20553;-68
2021/07/10 04:36:35;;;;;;;33.50;22.63;;;15.50;99.90;;;;;;5115929;28;20657;-68
2021/07/10 04:39:03;;;;;;;79.07;23.57;;;15.40;99.90;;;;;;5116202;28;20632;-68
2021/07/10 04:41:29;;;;;;;46.03;20.90;;;15.30;99.90;;;;;;5115957;28;20614;-68
2021/07/10 04:43:55;;;;;;;76.17;22.47;;;15.30;99.90;;;;;;5097170;28;20662;-68
2021/07/10 04:46:22;;;;;;;37.17;21.87;;;15.30;99.90;;;;;;5115961;28;20707;-68
2021/07/10 04:48:48;;;;;;;58.10;24.70;;;15.40;99.90;;;;;;5115238;28;20980;-68
2021/07/10 04:51:15;;;;;;;72.70;24.30;;;15.50;99.90;;;;;;5115455;28;20615;-68
2021/07/10 04:53:42;;;;;;;34.07;21.93;;;15.50;99.90;;;;;;5116076;28;20711;-68
2021/07/10 04:56:08;;;;;;;24.47;19.13;;;15.60;99.90;;;;;;5115602;28;20607;-68
2021/07/10 04:58:34;;;;;;;31.93;18.33;;;15.70;99.90;;;;;;5115716;28;20607;-68
2021/07/10 05:01:01;;;;;;;27.57;17.43;;;15.70;99.90;;;;;;5115632;28;20604;-68
2021/07/10 05:03:27;;;;;;;26.87;17.13;;;15.60;99.90;;;;;;5115305;28;20640;-68
2021/07/10 05:05:53;;;;;;;57.77;18.03;;;15.50;99.90;;;;;;5097269;28;20604;-69
2021/07/10 05:08:20;;;;;;;33.00;18.10;;;15.50;99.90;;;;;;5115315;28;20607;-68
2021/07/10 05:10:46;;;;;;;68.47;19.03;;;15.60;99.90;;;;;;5114260;28;20612;-68
2021/07/10 05:13:12;;;;;;;59.97;19.17;;;15.50;99.90;;;;;;5115269;28;21151;-68
2021/07/10 05:15:39;;;;;;;83.40;20.73;;;15.40;99.90;;;;;;5114924;28;20643;-68
2021/07/10 05:18:06;;;;;;;98.63;21.03;;;15.30;99.90;;;;;;5115156;28;20607;-68
2021/07/10 05:20:33;;;;;;;87.03;20.53;;;15.40;99.90;;;;;;5114500;28;20612;-68
2021/07/10 05:22:59;;;;;;;136.97;19.80;;;15.50;99.90;;;;;;5114779;28;20999;-68
2021/07/10 05:25:25;;;;;;;37.00;18.10;;;15.50;99.90;;;;;;5114745;28;20600;-68
2021/07/10 05:27:51;;;;;;;57.00;18.03;;;15.50;99.90;;;;;;5114768;28;21123;-68
2021/07/10 05:30:19;;;;;;;65.07;17.70;;;15.70;99.90;;;;;;5092107;28;20625;-68
2021/07/10 05:32:45;;;;;;;60.80;18.37;;;15.80;99.90;;;;;;5102994;28;20652;-68
2021/07/10 05:35:15;;;;;;;48.33;18.30;;;15.90;99.90;;;;;;5114085;28;21162;-68
2021/07/10 05:37:42;;;;;;;41.17;17.20;;;15.90;99.90;;;;;;5095686;28;20624;-68
2021/07/10 05:40:08;;;;;;;29.30;16.77;;;15.90;99.90;;;;;;5114240;28;21179;-68
2021/07/10 05:42:35;;;;;;;25.67;15.83;;;15.90;99.90;;;;;;5113826;28;20972;-68
2021/07/10 05:45:02;;;;;;;29.53;15.43;;;16.00;99.90;;;;;;5114104;28;20648;-68
2021/07/10 05:47:28;;;;;;;51.37;16.00;;;15.90;99.90;;;;;;5114004;28;20612;-68
2021/07/10 05:49:55;;;;;;;46.53;15.43;;;15.90;99.90;;;;;;5113705;28;20970;-68
2021/07/10 05:52:21;;;;;;;32.20;15.50;;;15.90;99.90;;;;;;5114244;28;20604;-68
2021/07/10 05:54:47;;;;;;;14.60;13.30;;;15.90;99.90;;;;;;5114085;28;20620;-68
2021/07/10 05:57:14;;;;;;;52.43;14.73;;;16.10;99.90;;;;;;5113596;28;20974;-68
2021/07/10 05:59:40;;;;;;;41.47;15.53;;;16.20;99.90;;;;;;5095436;28;20606;-68
2021/07/10 06:02:07;;;;;;;42.20;14.57;;;16.30;99.90;;;;;;5113825;28;20620;-68
2021/07/10 06:04:35;;;;;;;20.00;14.37;;;16.30;99.90;;;;;;5114174;28;20632;-68
2021/07/10 06:07:03;;;;;;;26.63;14.00;;;16.30;99.90;;;;;;5078898;28;20616;-68
2021/07/10 06:09:29;;;;;;;24.43;14.77;;;16.30;99.90;;;;;;5095857;28;20620;-68
2021/07/10 06:11:56;;;;;;;21.70;14.60;;;16.40;99.90;;;;;;5114219;28;20612;-69
2021/07/10 06:14:22;;;;;;;16.23;14.47;;;16.50;99.90;;;;;;5095580;28;20964;-68
2021/07/10 06:16:49;;;;;;;15.50;14.10;;;16.40;99.90;;;;;;5113857;28;20600;-68
2021/07/10 06:19:15;;;;;;;19.77;14.27;;;16.60;99.90;;;;;;5113898;28;20687;-68
2021/07/10 06:21:41;;;;;;;16.13;14.53;;;16.70;99.90;;;;;;5095612;28;20623;-68
2021/07/10 06:24:08;;;;;;;16.30;14.80;;;16.80;99.90;;;;;;5114039;28;20647;-69
2021/07/10 06:26:34;;;;;;;14.83;13.40;;;17.20;99.90;;;;;;5114232;28;21181;-68
2021/07/10 06:29:02;;;;;;;16.30;14.77;;;17.40;99.90;;;;;;5095549;28;20604;-68
2021/07/10 06:31:28;;;;;;;15.70;14.10;;;17.30;99.90;;;;;;5113117;28;21017;-69
2021/07/10 06:33:54;;;;;;;14.13;12.87;;;17.50;99.90;;;;;;5113664;28;20652;-69
2021/07/10 06:36:21;;;;;;;14.53;13.33;;;17.40;99.90;;;;;;5113688;28;20613;-69
2021/07/10 06:38:47;;;;;;;16.30;13.77;;;17.40;99.90;;;;;;5114046;28;21072;-68
2021/07/10 06:41:13;;;;;;;16.60;14.10;;;17.50;99.90;;;;;;5113777;28;20627;-68
2021/07/10 06:43:40;;;;;;;14.87;13.43;;;17.50;99.90;;;;;;5117761;28;20624;-68
2021/07/10 06:46:07;;;;;;;16.80;15.20;;;17.30;99.90;;;;;;5117699;28;20627;-69
2021/07/10 06:48:35;;;;;;;15.90;14.50;;;17.10;99.90;;;;;;5117254;28;20616;-68
2021/07/10 06:51:02;;;;;;;15.10;13.77;;;17.30;99.90;;;;;;5117885;28;20584;-68
2021/07/10 06:53:28;;;;;;;15.90;14.50;;;17.40;99.90;;;;;;5117703;28;20608;-68
2021/07/10 06:55:55;;;;;;;15.50;14.03;;;17.30;99.90;;;;;;5118060;28;20706;-68
2021/07/10 06:58:21;;;;;;;16.47;15.07;;;17.30;99.90;;;;;;5099788;28;20616;-69
2021/07/10 07:00:48;;;;;;;15.90;14.50;;;17.40;99.90;;;;;;5117883;28;20584;-69
2021/07/10 07:03:14;;;;;;;15.10;13.73;;;17.60;99.90;;;;;;5117513;28;20588;-69
2021/07/10 07:05:40;;;;;;;15.03;13.73;;;17.80;99.90;;;;;;5117671;28;21169;-68
2021/07/10 07:08:07;;;;;;;13.77;12.57;;;17.90;99.90;;;;;;5117841;28;20624;-68
2021/07/10 07:10:33;;;;;;;16.83;14.33;;;17.60;99.90;;;;;;5117816;28;20642;-68
2021/07/10 07:13:00;;;;;;;14.30;12.63;;;18.10;99.90;;;;;;5098977;28;20631;-69
2021/07/10 07:15:26;;;;;;;13.43;12.13;;;18.40;99.90;;;;;;5117490;28;20581;-68
2021/07/10 07:17:52;;;;;;;14.70;13.50;;;18.50;99.90;;;;;;5117483;28;20954;-68
2021/07/10 07:20:19;;;;;;;12.73;11.53;;;18.80;99.90;;;;;;5117515;28;21211;-69
2021/07/10 07:22:48;;;;;;;13.03;11.90;;;19.00;99.90;;;;;;5117476;28;21149;-69
2021/07/10 07:25:16;;;;;;;12.53;11.40;;;19.00;99.90;;;;;;5116694;28;20651;-69
2021/07/10 07:27:42;;;;;;;12.50;11.50;;;18.90;99.90;;;;;;5116837;28;20589;-69
2021/07/10 07:30:10;;;;;;;11.27;10.27;;;18.90;99.90;;;;;;5116413;28;20631;-69
2021/07/10 07:32:37;;;;;;;13.03;11.93;;;19.00;99.90;;;;;;5098627;28;20662;-69
2021/07/10 07:35:05;;;;;;;13.73;12.40;;;18.90;99.90;;;;;;5116231;28;20682;-69
2021/07/10 07:37:32;;;;;;;13.13;11.83;;;18.70;99.90;;;;;;5116909;28;20703;-70
2021/07/10 07:39:58;;;;;;;14.20;12.80;;;18.50;99.90;;;;;;5117082;28;20699;-70
2021/07/10 07:42:25;;;;;;;14.50;13.17;;;18.50;99.90;;;;;;5117144;28;20617;-70
2021/07/10 07:44:51;;;;;;;15.60;14.30;;;18.40;99.90;;;;;;5098350;28;20670;-69
2021/07/10 07:47:18;;;;;;;14.70;13.30;;;18.40;99.90;;;;;;5116774;28;20619;-70
2021/07/10 07:49:46;;;;;;;14.77;13.13;;;18.40;99.90;;;;;;5116729;28;20661;-70
2021/07/10 07:52:13;;;;;;;13.13;12.13;;;18.60;99.90;;;;;;5082041;28;20616;-70
2021/07/10 07:54:39;;;;;;;14.40;13.20;;;18.60;99.90;;;;;;5116414;28;20584;-70
2021/07/10 07:57:05;;;;;;;13.37;11.97;;;18.60;99.90;;;;;;5116436;28;20683;-68
2021/07/10 07:59:32;;;;;;;13.33;12.23;;;19.00;99.90;;;;;;5098765;28;20601;-71
2021/07/10 08:01:58;;;;;;;13.37;12.20;;;19.00;99.90;;;;;;5116638;28;21141;-71
2021/07/10 08:04:25;;;;;;;12.40;11.40;;;19.30;99.90;;;;;;5116545;28;20635;-70
2021/07/10 08:06:51;;;;;;;16.40;11.33;;;19.50;99.90;;;;;;5116509;28;20594;-70
2021/07/10 08:09:17;;;;;;;13.97;12.57;;;19.50;99.90;;;;;;5116398;28;20612;-70
2021/07/10 08:11:44;;;;;;;12.60;11.60;;;19.30;99.90;;;;;;5116358;28;20972;-70
2021/07/10 08:14:12;;;;;;;12.20;11.13;;;19.20;99.90;;;;;;5111545;28;20670;-70
2021/07/10 08:16:39;;;;;;;13.83;12.63;;;19.10;99.90;;;;;;5104988;28;20640;-70
2021/07/10 08:19:06;;;;;;;13.30;12.00;;;19.20;99.90;;;;;;5115526;28;20615;-70
2021/07/10 08:21:33;;;;;;;12.03;11.03;;;19.30;99.90;;;;;;5115286;28;20673;-70
2021/07/10 08:24:00;;;;;;;12.50;11.20;;;19.70;99.90;;;;;;5115019;28;20658;-70
2021/07/10 08:26:29;;;;;;;11.17;10.17;;;19.90;99.90;;;;;;5115691;28;20707;-70
2021/07/10 08:28:55;;;;;;;10.63;9.63;;;20.10;99.90;;;;;;5115002;28;21142;-70
2021/07/10 08:31:22;;;;;;;12.50;11.13;;;20.30;99.90;;;;;;5114989;28;20612;-71
2021/07/10 08:33:48;;;;;;;10.00;9.00;;;20.40;99.90;;;;;;5113946;28;20648;-70
2021/07/10 08:36:15;;;;;;;10.00;9.10;;;20.90;99.90;;;;;;5115447;28;20705;-71
2021/07/10 08:38:41;;;;;;;11.03;10.00;;;20.80;99.90;;;;;;5114659;28;20681;-71
2021/07/10 08:41:09;;;;;;;8.20;7.60;;;;;;;;;;5115026;28;20645;-70
2021/07/10 08:43:36;;;;;;;8.60;7.83;;;20.40;99.90;;;;;;5110623;28;20610;-70
2021/07/10 08:46:05;;;;;;;7.70;7.13;;;20.70;99.90;;;;;;5104885;28;20712;-71
2021/07/10 08:48:33;;;;;;;9.07;8.27;;;21.20;99.90;;;;;;5096506;28;20617;-71
2021/07/10 08:51:06;;;;;;;7.50;6.90;;;21.40;99.90;;;;;;5114941;28;20621;-71
2021/07/10 08:53:33;;;;;;;9.30;7.00;;;21.50;99.90;;;;;;5114742;28;20612;-71
2021/07/10 08:55:59;;;;;;;7.93;7.23;;;21.60;99.90;;;;;;5114985;28;20619;-71
2021/07/10 08:58:26;;;;;;;7.63;7.00;;;21.70;99.90;;;;;;5114740;28;20938;-71
2021/07/10 09:00:53;;;;;;;9.80;8.60;;;21.50;99.90;;;;;;5096672;28;20626;-71
2021/07/10 09:03:19;;;;;;;8.50;7.90;;;21.80;99.90;;;;;;5114740;28;21153;-71
2021/07/10 09:05:47;;;;;;;7.47;6.87;;;21.80;99.90;;;;;;5113924;28;20644;-71
2021/07/10 09:08:24;;;;;;;7.83;7.33;;;22.30;99.90;;;;;;5114528;28;20658;-71
2021/07/10 09:11:05;;;;;;;8.70;7.90;;;22.20;99.90;;;;;;5114748;28;20694;-71
2021/07/10 09:13:50;;;;;;;6.70;6.10;;;22.10;99.90;;;;;;5102022;28;20585;-70
2021/07/10 09:16:19;;;;;;;6.97;6.47;;;22.60;99.90;;;;;;5083053;28;20612;-71
2021/07/10 09:19:09;;;;;;;6.80;6.10;;;22.50;99.90;;;;;;5113729;28;20648;-71
2021/07/10 09:21:45;;;;;;;5.90;5.50;;;22.90;99.90;;;;;;5113776;28;20996;-71
2021/07/10 09:24:17;;;;;;;6.63;6.00;;;23.10;99.90;;;;;;5113638;28;20674;-71
2021/07/10 09:26:49;;;;;;;6.67;6.17;;;22.30;99.90;;;;;;5113410;28;20620;-71
2021/07/10 09:29:21;;;;;;;5.90;5.50;;;22.80;99.90;;;;;;5114597;28;20602;-69
2021/07/10 09:32:05;;;;;;;5.90;5.50;;;23.10;99.90;;;;;;5114311;28;20643;-71
2021/07/10 09:34:52;;;;;;;7.97;7.30;;;23.50;99.90;;;;;;5114644;28;20557;-70
2021/07/10 09:37:21;;;;;;;10.00;6.70;;;22.80;99.90;;;;;;5114765;28;20561;-71
2021/07/10 09:40:01;;;;;;;6.70;6.20;;;22.80;99.90;;;;;;5114313;28;20615;-71
2021/07/10 09:42:36;;;;;;;9.43;6.20;;;23.00;99.90;;;;;;5113901;28;20616;-71
2021/07/10 09:45:14;;;;;;;5.47;5.10;;;22.80;99.90;;;;;;5114261;28;20656;-70
2021/07/10 09:47:42;;;;;;;5.10;4.70;;;23.00;82.80;;;;;;5114182;28;20569;-70
2021/07/10 09:50:09;;;;;;;6.00;4.37;;;23.00;56.40;;;;;;5113715;28;21200;-71
2021/07/10 09:52:37;;;;;;;5.30;4.83;;;23.40;1.00;;;;;;5113387;28;21158;-70
2021/07/10 09:55:10;;;;;;;5.03;4.60;;;23.60;62.80;;;;;;5114003;28;20595;-70
2021/07/10 09:57:38;;;;;;;5.53;5.03;;;23.60;50.50;;;;;;5113423;28;21011;-70
2021/07/10 10:00:08;;;;;;;4.83;4.43;;;23.70;89.50;;;;;;5096210;28;20622;-70
2021/07/10 10:02:47;;;;;;;6.23;5.40;;;24.00;1.80;;;;;;5114018;28;20592;-71
2021/07/10 10:05:19;;;;;;;8.13;4.47;;;23.80;17.10;;;;;;5113755;28;20597;-71
2021/07/10 10:07:51;;;;;;;5.80;5.17;;;23.50;45.10;;;;;;5095642;28;20616;-70
2021/07/10 10:10:24;;;;;;;5.90;4.90;;;23.70;96.70;;;;;;5113819;28;21079;-70
2021/07/10 10:13:08;;;;;;;4.30;4.10;;;23.40;93.40;;;;;;5113192;28;20608;-70
2021/07/10 10:15:40;;;;;;;5.27;4.87;;;23.30;87.40;;;;;;5113166;28;20604;-71
2021/07/10 10:18:07;;;;;;;4.80;4.50;;;23.80;52.00;;;;;;5114131;28;20624;-71
2021/07/10 10:20:35;;;;;;;4.37;4.10;;;24.00;16.40;;;;;;5113529;28;20620;-71
2021/07/10 10:23:03;;;;;;;5.33;4.77;;;23.80;25.20;;;;;;5113930;28;20592;-71
2021/07/10 10:25:30;;;;;;;5.20;4.80;;;24.10;42.90;;;;;;5113538;28;20632;-71
2021/07/10 10:27:58;;;;;;;4.30;4.10;;;24.60;15.80;;;;;;5113824;28;20592;-71
2021/07/10 10:30:25;;;;;;;5.20;4.70;;;25.00;1.00;;;;;;5113667;28;20584;-71
2021/07/10 10:32:51;;;;;;;5.00;4.70;;;24.90;1.00;;;;;;5113362;28;20632;-71
2021/07/10 10:35:19;;;;;;;7.10;6.27;;;24.80;1.00;;;;;;5094974;28;20961;-71
2021/07/10 10:37:46;;;;;;;3.70;3.50;;;24.80;1.00;;;;;;5113200;28;20611;-71
2021/07/10 10:40:15;;;;;;;6.83;3.67;;;25.10;1.00;;;;;;5094766;28;20739;-71
2021/07/10 10:42:45;;;;;;;4.43;4.03;;;25.00;1.00;;;;;;5113090;28;20625;-71
2021/07/10 10:45:12;;;;;;;4.57;4.00;;;25.10;1.00;;;;;;5094785;28;20648;-70
2021/07/10 10:47:50;;;;;;;4.17;3.80;;;25.40;1.00;;;;;;5112830;28;21012;-71
2021/07/10 10:50:26;;;;;;;6.80;4.60;;;25.50;1.00;;;;;;5112772;28;21177;-70
2021/07/10 10:52:56;;;;;;;3.53;3.30;;;25.20;1.00;;;;;;5112611;28;20616;-70
2021/07/10 10:55:28;;;;;;;4.07;3.80;;;25.40;1.00;;;;;;5112142;28;20999;-71
2021/07/10 10:57:56;;;;;;;6.37;3.10;;;25.10;1.00;;;;;;5112916;28;20609;-70
2021/07/10 11:00:28;;;;;;;4.27;3.87;;;25.30;1.00;;;;;;5112588;28;21165;-70
2021/07/10 11:03:00;;;;;;;4.00;3.70;;;25.40;1.00;;;;;;5099378;28;20611;-70
2021/07/10 11:05:35;;;;;;;3.30;3.13;;;25.40;1.00;;;;;;5112219;28;20657;-70
2021/07/10 11:08:35;;;;;;;3.50;3.20;;;26.00;1.00;;;;;;5099712;28;20599;-70
2021/07/10 11:11:01;;;;;;;3.90;3.60;;;26.40;1.00;;;;;;5052537;28;20616;-70
2021/07/10 11:13:55;;;;;;;3.17;2.87;;;26.70;79.30;;;;;;5113026;28;20620;-70
2021/07/10 11:16:22;;;;;;;3.20;3.00;;;27.00;99.90;;;;;;5086779;28;21222;-70
2021/07/10 11:18:51;;;;;;;2.93;2.80;;;26.70;99.90;;;;;;5112655;28;20694;-70
2021/07/10 11:21:34;;;;;;;3.37;3.07;;;26.50;59.30;;;;;;5094145;28;21159;-70
2021/07/10 11:26:54;;;;;;;3.53;3.23;;;26.70;99.90;;;;;;5113163;28;21122;-70
2021/07/10 11:29:31;;;;;;;3.23;2.90;;;26.80;99.90;;;;;;5115559;28;20646;-70
2021/07/10 11:32:12;;;;;;;3.57;3.27;;;27.10;99.90;;;;;;5116853;28;20630;-70
2021/07/10 11:34:44;;;;;;;3.60;3.30;;;27.30;99.90;;;;;;5116008;28;20616;-70
2021/07/10 11:37:21;;;;;;;3.00;2.70;;;27.60;99.90;;;;;;5117196;28;20560;-70
2021/07/10 11:39:53;;;;;;;3.13;2.93;;;27.90;99.90;;;;;;5116629;28;20636;-70
2021/07/10 11:42:32;;;;;;;3.37;3.23;;;28.40;99.90;;;;;;5116780;28;21035;-70
2021/07/10 11:45:04;;;;;;;2.80;2.70;;;28.30;99.90;;;;;;5116660;28;20600;-70
2021/07/10 11:47:42;;;;;;;2.77;2.67;;;28.80;99.90;;;;;;5116636;28;20585;-70
2021/07/10 11:50:22;;;;;;;3.10;2.80;;;27.60;99.90;;;;;;5116732;28;20580;-70
2021/07/10 11:53:03;;;;;;;13.47;3.70;;;27.70;99.90;;;;;;5116516;28;20573;-70
2021/07/10 11:55:33;;;;;;;3.20;2.97;;;27.60;99.90;;;;;;5116141;28;20626;-70
2021/07/10 11:58:17;;;;;;;6.30;2.87;;;28.50;99.90;;;;;;5115891;28;20627;-70
2021/07/10 12:00:45;;;;;;;3.33;3.10;;;28.90;99.90;;;;;;5116511;28;20561;-70
2021/07/10 12:03:18;;;;;;;3.07;2.87;;;28.60;99.90;;;;;;5116403;28;20616;-70
2021/07/10 12:05:44;;;;;;;3.30;2.90;;;29.50;99.90;;;;;;5116371;28;20658;-70
2021/07/10 12:08:11;;;;;;;4.47;3.93;;;29.60;99.90;;;;;;5116367;28;20600;-70
2021/07/10 12:10:41;;;;;;;5.40;3.10;;;28.80;99.90;;;;;;5115690;28;20715;-70
2021/07/10 12:13:12;;;;;;;3.67;3.27;;;28.80;99.90;;;;;;5115770;28;20638;-70
2021/07/10 12:15:44;;;;;;;6.00;3.40;;;29.40;99.90;;;;;;5115832;28;21134;-70
2021/07/10 12:18:12;;;;;;;5.13;3.53;;;29.00;99.90;;;;;;5115888;28;20619;-70
2021/07/10 12:20:41;;;;;;;2.70;2.60;;;30.10;99.90;;;;;;5115989;28;20588;-70
2021/07/10 12:23:11;;;;;;;3.30;3.00;;;30.30;99.90;;;;;;5116023;28;20604;-70
2021/07/10 12:26:07;;;;;;;5.93;2.97;;;28.70;99.90;;;;;;5115848;28;20600;-69
2021/07/10 12:28:36;;;;;;;2.97;2.77;;;27.80;99.90;;;;;;5115455;28;20624;-69
2021/07/10 12:31:26;;;;;;;3.77;3.33;;;27.10;99.90;;;;;;5115503;28;20970;-69
2021/07/10 12:33:53;;;;;;;3.13;2.93;;;27.50;99.90;;;;;;5114750;28;20655;-69
2021/07/10 12:36:31;;;;;;;9.63;3.40;;;27.40;99.90;;;;;;5115353;28;20674;-70
2021/07/10 12:39:08;;;;;;;3.80;3.27;;;27.90;99.90;;;;;;5114445;28;20623;-69
2021/07/10 12:41:36;;;;;;;3.57;3.27;;;27.30;99.90;;;;;;5115265;28;20631;-69
2021/07/10 12:44:11;;;;;;;5.63;3.10;;;28.10;99.90;;;;;;5115602;28;20607;-70